Hauptseite
METAR-TAF:

METAR-TAF

Flughäfen :

Flughafen Augsburg

Augsburg, Deutschland

Breite: 48-26N, Länge: 010-56E, Höhe: 461 m

Beobachtung

Neuester Wetterbericht von vor 11 Minuten, um 23:20 UTC
Wind 2 kt aus unterschiedlichen Richtungen
Temperatur 20°C
Luftfeuchtigkeit 56%
Luftdruck 1019 hPa
Sichtweite 10 km oder mehr

METAR: EDMA 212320Z AUTO VRB02KT 9999 // NCD 20/11 Q1019

Zeit: 01:31 (23:31 UTC)

Prognose

Neuester Wetterbericht von vor 6 Stunden und 31 Minuten, um 17:00 UTC
Gültige Prognose vom 21 um 18 UTC bis 22 um 03 UTC
Wind 5 kt aus Nord/Nordost
Sichtweite 10 km oder mehr
keine Wolken unter 1500 m und keine Kumulonimbus oder Gewitterwolken
Übergehend zu
vom 21 um 18 UTC bis 21 um 20 UTC
Wind 3 kt aus unterschiedlichen Richtungen

TAF: EDMA 211700Z 2118/2203 03005KT CAVOK BECMG 2118/2120 VRB03KT

Wetterbeobachtungen und Prognosen von mehr als 4000 Flughäfen (METAR und TAF Bericht).

Die verfügbaren Stationen werden durch gelbe und rote Markierungen auf der Karte dargestellt.

Führen Sie die Maus auf sie, um den Namen der Station zu sehen.

Darauf klicken, um die Beobachtung von Wetterbeobachtungen und Prognosen zu sehen.

Um die Karte zu ändern : klicken Sie auf den grünen Tasten mit einem schwarzen Kreuz Zum Vergrößern, auf den grünen Button mit einem Gedankenstrich zu verkleinern, oder auf die grünen Pfeile für benachbarte Karten.


METAR-TAF: